Time;durP1;ratioP1;P1;durP2;ratioP2;P2;SDS_P1;SDS_P2;PMS_P1;PMS_P2;Temp;Humidity;BMP_temperature;BMP_pressure;BME280_temperature;BME280_humidity;BME280_pressure;Samples;Min_cycle;Max_cycle;Signal;HPM_P1;HPM_P2
2022/05/18 00:01:06;;;;;;;10.57;6.60;;;19.70;67.70;;;;;;5114192;28;20031;-68
2022/05/18 00:03:37;;;;;;;8.18;5.40;;;19.70;67.90;;;;;;5114231;28;20024;-68
2022/05/18 00:06:05;;;;;;;9.75;6.22;;;19.60;67.40;;;;;;5114218;28;20501;-68
2022/05/18 00:08:35;;;;;;;7.70;6.22;;;19.70;67.40;;;;;;5114166;28;20024;-68
2022/05/18 00:11:06;;;;;;;9.07;6.85;;;19.80;67.30;;;;;;5114151;28;20028;-68
2022/05/18 00:13:32;;;;;;;6.57;5.32;;;19.80;67.50;;;;;;5114274;28;20024;-68
2022/05/18 00:15:58;;;;;;;5.47;4.68;;;19.80;67.80;;;;;;5114047;28;20020;-68
2022/05/18 00:18:24;;;;;;;11.82;6.80;;;19.60;68.30;;;;;;5113918;28;20043;-68
2022/05/18 00:20:49;;;;;;;12.20;7.30;;;19.50;68.90;;;;;;5113811;28;20028;-68
2022/05/18 00:23:15;;;;;;;11.85;7.20;;;19.50;69.30;;;;;;5113688;28;20048;-68
2022/05/18 00:25:41;;;;;;;10.43;7.45;;;19.40;69.50;;;;;;5113846;28;20020;-68
2022/05/18 00:28:07;;;;;;;10.43;7.60;;;19.40;70.00;;;;;;5113694;28;20016;-68
2022/05/18 00:30:34;;;;;;;10.38;7.43;;;19.40;70.20;;;;;;5112746;28;20039;-68
2022/05/18 00:33:03;;;;;;;11.13;7.55;;;19.40;70.00;;;;;;5112589;28;20036;-68
2022/05/18 00:35:29;;;;;;;9.48;7.18;;;19.40;69.60;;;;;;5113677;28;20035;-68
2022/05/18 00:37:54;;;;;;;9.13;7.03;;;19.50;69.40;;;;;;5112644;28;20028;-68
2022/05/18 00:40:20;;;;;;;11.07;7.45;;;19.50;69.50;;;;;;5113542;28;20043;-68
2022/05/18 00:42:47;;;;;;;9.75;6.88;;;19.50;69.60;;;;;;5113562;28;20031;-68
2022/05/18 00:45:14;;;;;;;8.95;6.60;;;19.60;70.60;;;;;;5113576;28;20133;-68
2022/05/18 00:47:40;;;;;;;9.13;7.25;;;19.60;69.50;;;;;;5112469;28;20012;-68
2022/05/18 00:50:13;;;;;;;8.60;6.70;;;19.50;69.60;;;;;;5113482;28;20051;-68
2022/05/18 00:52:44;;;;;;;7.90;5.63;;;19.50;69.50;;;;;;5113551;28;20030;-68
2022/05/18 00:55:13;;;;;;;7.13;5.25;;;19.50;69.50;;;;;;5113551;28;20031;-68
2022/05/18 00:57:47;;;;;;;8.82;6.20;;;19.40;69.40;;;;;;5113404;28;20020;-68
2022/05/18 01:00:15;;;;;;;10.95;7.20;;;19.30;69.30;;;;;;5113397;28;20035;-68
2022/05/18 01:02:46;;;;;;;10.70;7.35;;;19.20;69.80;;;;;;5112316;28;20052;-68
2022/05/18 01:05:17;;;;;;;12.02;7.50;;;19.10;70.00;;;;;;5113376;28;20037;-68
2022/05/18 01:07:47;;;;;;;10.43;6.70;;;19.00;70.50;;;;;;5113381;28;20020;-68
2022/05/18 01:10:13;;;;;;;9.50;6.90;;;18.90;70.80;;;;;;5113329;28;20046;-68
2022/05/18 01:12:38;;;;;;;11.30;6.90;;;18.90;71.20;;;;;;5113266;28;20024;-68
2022/05/18 01:15:10;;;;;;;14.60;6.97;;;18.90;71.60;;;;;;5113276;28;20024;-68
2022/05/18 01:17:38;;;;;;;11.18;7.05;;;18.90;71.40;;;;;;5113443;28;20027;-68
2022/05/18 01:20:08;;;;;;;8.88;6.40;;;18.90;71.20;;;;;;5113152;28;20084;-68
2022/05/18 01:22:51;;;;;;;8.63;6.32;;;18.90;70.80;;;;;;5112884;28;20048;-68
2022/05/18 01:25:38;;;;;;;9.95;6.85;;;18.90;70.70;;;;;;5112139;28;20020;-68
2022/05/18 01:28:05;;;;;;;10.18;6.30;;;18.90;70.60;;;;;;5113194;28;20027;-68
2022/05/18 01:30:32;;;;;;;10.23;6.68;;;18.80;70.70;;;;;;5113105;28;20053;-68
2022/05/18 01:33:00;;;;;;;9.02;5.75;;;18.80;70.70;;;;;;5113128;28;20402;-68
2022/05/18 01:35:28;;;;;;;8.52;5.60;;;18.80;70.40;;;;;;5112989;28;20084;-68
2022/05/18 01:37:57;;;;;;;8.02;5.97;;;18.90;70.20;;;;;;5113091;28;20032;-68
2022/05/18 01:40:34;;;;;;;7.18;5.55;;;18.80;70.30;;;;;;5112974;28;20036;-68
2022/05/18 01:43:18;;;;;;;7.80;6.10;;;18.70;70.00;;;;;;5115949;28;20020;-68
2022/05/18 01:45:49;;;;;;;7.63;5.93;;;18.70;70.40;;;;;;5117076;28;20091;-68
2022/05/18 01:48:16;;;;;;;7.57;5.40;;;18.70;70.80;;;;;;5116883;28;20027;-68
2022/05/18 01:50:43;;;;;;;8.70;5.82;;;18.70;70.60;;;;;;5115734;28;20028;-68
2022/05/18 01:53:09;;;;;;;8.40;5.80;;;18.70;70.20;;;;;;5116742;28;20020;-68
2022/05/18 01:55:35;;;;;;;6.03;4.68;;;18.80;69.90;;;;;;5116731;28;20063;-68
2022/05/18 01:58:01;;;;;;;7.28;5.10;;;18.70;69.70;;;;;;5116665;28;20028;-68
2022/05/18 02:00:28;;;;;;;8.38;5.10;;;18.70;69.20;;;;;;5116562;28;20071;-68
2022/05/18 02:02:54;;;;;;;8.40;6.28;;;18.80;69.30;;;;;;5116534;28;20050;-68
2022/05/18 02:05:20;;;;;;;9.80;5.68;;;18.80;69.40;;;;;;5116560;28;20095;-68
2022/05/18 02:07:46;;;;;;;8.75;5.70;;;18.80;69.60;;;;;;5116429;28;20020;-68
2022/05/18 02:10:12;;;;;;;7.32;5.30;;;18.70;69.60;;;;;;5116461;28;20032;-68
2022/05/18 02:12:38;;;;;;;7.88;5.90;;;18.70;69.40;;;;;;5116363;28;20099;-68
2022/05/18 02:15:05;;;;;;;9.73;6.05;;;18.70;69.70;;;;;;5116307;28;20076;-68
2022/05/18 02:17:31;;;;;;;8.82;5.90;;;18.60;70.10;;;;;;5116416;28;20028;-68
2022/05/18 02:19:57;;;;;;;7.53;5.50;;;18.50;70.30;;;;;;5116123;28;20034;-68
2022/05/18 02:22:24;;;;;;;8.18;5.80;;;18.50;70.60;;;;;;5114971;28;20112;-68
2022/05/18 02:24:49;;;;;;;11.40;6.35;;;18.40;70.20;;;;;;5116265;28;20020;-68
2022/05/18 02:27:16;;;;;;;8.20;5.80;;;18.50;70.40;;;;;;5116090;28;20016;-68
2022/05/18 02:29:42;;;;;;;10.05;6.03;;;18.50;70.40;;;;;;5115039;28;20024;-68
2022/05/18 02:32:09;;;;;;;8.50;5.57;;;18.40;70.50;;;;;;5116057;28;20023;-69
2022/05/18 02:34:35;;;;;;;6.68;5.07;;;18.40;70.50;;;;;;5115962;28;20034;-69
2022/05/18 02:37:01;;;;;;;7.03;4.35;;;18.50;70.00;;;;;;5115920;28;20020;-68
2022/05/18 02:39:27;;;;;;;5.13;4.32;;;18.50;69.40;;;;;;5115787;28;20024;-69
2022/05/18 02:41:52;;;;;;;7.60;4.85;;;18.40;69.60;;;;;;5115819;28;20459;-68
2022/05/18 02:44:19;;;;;;;7.78;4.97;;;18.40;69.50;;;;;;5115865;28;20058;-69
2022/05/18 02:46:45;;;;;;;5.25;4.10;;;18.30;69.60;;;;;;5115699;28;20020;-69
2022/05/18 02:49:11;;;;;;;9.00;5.50;;;18.30;69.60;;;;;;5115707;28;20044;-69
2022/05/18 02:51:39;;;;;;;5.95;3.85;;;18.20;70.00;;;;;;5115659;28;20023;-68
2022/05/18 02:56:05;;;;;;;5.07;3.80;;;18.20;69.60;;;;;;5114440;28;20517;-69
2022/05/18 02:56:54;;;;;;;5.57;4.03;;;18.10;69.80;;;;;;5115579;28;20048;-69
2022/05/18 02:59:21;;;;;;;6.75;4.30;;;18.00;70.30;;;;;;5115535;28;20031;-68
2022/05/18 03:01:47;;;;;;;5.57;4.07;;;18.00;70.50;;;;;;5115387;28;20020;-69
2022/05/18 03:04:13;;;;;;;5.55;4.40;;;18.00;70.20;;;;;;5115404;28;20051;-69
2022/05/18 03:06:39;;;;;;;9.00;5.10;;;18.00;70.50;;;;;;5115332;28;20047;-68
2022/05/18 03:09:05;;;;;;;7.72;5.07;;;18.00;70.50;;;;;;5115258;28;20028;-69
2022/05/18 03:11:30;;;;;;;8.60;5.30;;;18.00;70.60;;;;;;5115227;28;20028;-68
2022/05/18 03:13:56;;;;;;;5.97;4.43;;;18.00;70.80;;;;;;5115187;28;20028;-68
2022/05/18 03:16:23;;;;;;;8.23;5.18;;;18.00;71.00;;;;;;5115122;28;20092;-68
2022/05/18 03:18:49;;;;;;;5.28;3.85;;;18.00;71.20;;;;;;5115168;28;20050;-69
2022/05/18 03:23:59;;;;;;;10.75;5.18;;;18.10;71.10;;;;;;5114864;28;20465;-68
2022/05/18 03:26:25;;;;;;;8.73;5.68;;;18.10;71.20;;;;;;5114906;28;20016;-68
2022/05/18 03:28:55;;;;;;;9.45;6.07;;;18.00;71.70;;;;;;5114797;28;20021;-69
2022/05/18 03:31:21;;;;;;;11.50;5.75;;;17.80;72.10;;;;;;5114961;28;20024;-68
2022/05/18 03:33:47;;;;;;;8.13;5.78;;;17.80;72.30;;;;;;5114830;28;20031;-68
2022/05/18 03:36:15;;;;;;;8.27;6.07;;;17.80;72.40;;;;;;5114771;28;20028;-68
2022/05/18 03:38:42;;;;;;;8.10;5.22;;;17.90;72.30;;;;;;5114722;28;20077;-68
2022/05/18 03:41:08;;;;;;;7.60;5.40;;;17.90;71.80;;;;;;5114598;28;20028;-68
2022/05/18 03:43:34;;;;;;;11.85;5.22;;;17.90;71.70;;;;;;5114643;28;20039;-69
2022/05/18 03:45:59;;;;;;;8.82;5.45;;;17.80;71.90;;;;;;5114593;28;20016;-68
2022/05/18 03:48:26;;;;;;;6.55;4.90;;;17.80;72.00;;;;;;5114483;28;20032;-68
2022/05/18 03:50:53;;;;;;;8.52;4.47;;;17.80;71.70;;;;;;5114486;28;20024;-69
2022/05/18 03:53:19;;;;;;;6.93;5.18;;;17.80;71.30;;;;;;5114587;28;20020;-68
2022/05/18 03:55:45;;;;;;;12.35;6.40;;;17.80;71.50;;;;;;5114513;28;20074;-68
2022/05/18 03:58:12;;;;;;;7.63;5.40;;;17.90;71.70;;;;;;5114341;28;20028;-68
2022/05/18 04:00:40;;;;;;;7.82;5.20;;;17.90;71.60;;;;;;5114215;28;20024;-69
2022/05/18 04:03:06;;;;;;;7.93;5.50;;;18.00;71.50;;;;;;5114292;28;20024;-68
2022/05/18 04:05:32;;;;;;;12.15;5.50;;;18.00;71.40;;;;;;5113918;28;20071;-68
2022/05/18 04:08:00;;;;;;;8.45;5.50;;;18.00;71.30;;;;;;5113110;28;20126;-68
2022/05/18 04:10:25;;;;;;;10.90;5.90;;;17.90;71.50;;;;;;5114107;28;20031;-69
2022/05/18 04:12:51;;;;;;;8.30;6.22;;;17.90;72.00;;;;;;5114048;28;20032;-68
2022/05/18 04:15:17;;;;;;;8.57;5.65;;;17.90;72.10;;;;;;5114018;28;20020;-68
2022/05/18 04:17:45;;;;;;;9.02;6.47;;;17.90;72.10;;;;;;5114004;28;20024;-69
2022/05/18 04:20:16;;;;;;;9.95;6.40;;;17.90;72.10;;;;;;5113901;28;20020;-68
2022/05/18 04:22:42;;;;;;;9.35;6.38;;;17.90;72.20;;;;;;5113903;28;20048;-68
2022/05/18 04:25:09;;;;;;;10.60;6.45;;;17.90;71.90;;;;;;5113879;28;20043;-68
2022/05/18 04:27:34;;;;;;;14.80;6.03;;;17.90;72.20;;;;;;5113739;28;20092;-68
2022/05/18 04:30:00;;;;;;;12.65;6.55;;;17.80;72.30;;;;;;5113812;28;20032;-69
2022/05/18 04:32:26;;;;;;;10.60;6.60;;;17.90;72.60;;;;;;5113701;28;20037;-69
2022/05/18 04:34:51;;;;;;;10.02;6.47;;;17.90;72.60;;;;;;5095902;28;20031;-69
2022/05/18 04:37:18;;;;;;;10.90;6.82;;;17.90;72.60;;;;;;5112756;28;20056;-68
2022/05/18 04:39:44;;;;;;;13.25;8.50;;;17.90;72.70;;;;;;5113587;28;20020;-69
2022/05/18 04:42:10;;;;;;;9.23;7.10;;;17.90;72.80;;;;;;5113561;28;20111;-69
2022/05/18 04:44:36;;;;;;;17.65;8.18;;;17.90;73.00;;;;;;5113571;28;20029;-69
2022/05/18 04:47:03;;;;;;;11.50;8.30;;;18.00;73.10;;;;;;5113539;28;20099;-69
2022/05/18 04:49:29;;;;;;;14.38;8.93;;;18.00;73.40;;;;;;5113538;28;20474;-69
2022/05/18 04:51:55;;;;;;;10.45;7.45;;;18.00;73.70;;;;;;5113368;28;20085;-69
2022/05/18 04:54:20;;;;;;;15.52;8.32;;;18.10;73.50;;;;;;5113576;28;20028;-69
2022/05/18 04:56:50;;;;;;;11.35;8.18;;;18.10;73.50;;;;;;5113375;28;20032;-69
2022/05/18 04:59:15;;;;;;;12.65;8.10;;;18.10;73.70;;;;;;5112316;28;20110;-69
2022/05/18 05:01:43;;;;;;;11.18;8.20;;;18.10;73.90;;;;;;5113257;28;20032;-69
2022/05/18 05:04:13;;;;;;;13.30;8.48;;;18.20;73.80;;;;;;5113358;28;20038;-69
2022/05/18 05:06:49;;;;;;;12.18;8.82;;;18.20;73.60;;;;;;5113357;28;20016;-70
2022/05/18 05:09:14;;;;;;;13.45;8.93;;;18.30;73.60;;;;;;5113362;28;20079;-69
2022/05/18 05:11:40;;;;;;;12.52;8.95;;;18.30;73.70;;;;;;5112206;28;20058;-69
2022/05/18 05:14:06;;;;;;;15.02;8.45;;;18.30;73.80;;;;;;5113249;28;20039;-69
2022/05/18 05:16:33;;;;;;;10.65;8.63;;;18.40;73.80;;;;;;5113750;28;20032;-69
2022/05/18 05:18:59;;;;;;;12.98;9.05;;;18.40;74.00;;;;;;5117458;28;20027;-69
2022/05/18 05:21:25;;;;;;;15.32;8.65;;;18.50;73.80;;;;;;5116312;28;20052;-69
2022/05/18 05:23:50;;;;;;;16.13;8.35;;;18.50;74.50;;;;;;5117162;28;20047;-68
2022/05/18 05:26:17;;;;;;;10.85;8.68;;;18.60;73.60;;;;;;5117244;28;20028;-69
2022/05/18 05:28:42;;;;;;;11.90;8.57;;;18.70;73.30;;;;;;5117183;28;20012;-69
2022/05/18 05:31:10;;;;;;;14.15;8.65;;;18.80;73.60;;;;;;5117169;28;20032;-69
2022/05/18 05:33:38;;;;;;;12.48;8.15;;;18.80;73.00;;;;;;5117163;28;20024;-69
2022/05/18 05:36:05;;;;;;;12.68;8.45;;;18.90;72.80;;;;;;5117119;28;20047;-69
2022/05/18 05:38:31;;;;;;;11.80;7.85;;;18.90;73.30;;;;;;5117067;28;20020;-69
2022/05/18 05:41:00;;;;;;;12.55;7.93;;;19.00;72.80;;;;;;5116969;28;20039;-68
2022/05/18 05:43:26;;;;;;;11.02;8.07;;;19.10;72.40;;;;;;5116907;28;20023;-69
2022/05/18 05:46:04;;;;;;;11.73;7.88;;;19.20;72.10;;;;;;5116067;28;20043;-68
2022/05/18 05:48:31;;;;;;;11.13;7.50;;;19.30;72.20;;;;;;5116970;28;20042;-69
2022/05/18 05:50:58;;;;;;;12.77;7.07;;;19.30;72.50;;;;;;5116821;28;20035;-69
2022/05/18 05:53:23;;;;;;;9.27;6.85;;;19.40;71.60;;;;;;5115813;28;20043;-69
2022/05/18 05:55:50;;;;;;;10.23;7.07;;;19.50;70.90;;;;;;5116718;28;20036;-69
2022/05/18 05:58:17;;;;;;;10.98;6.90;;;19.60;70.90;;;;;;5116705;28;20029;-69
2022/05/18 06:00:43;;;;;;;9.48;6.90;;;19.70;70.50;;;;;;5116643;28;20056;-69
2022/05/18 06:03:08;;;;;;;11.07;7.22;;;19.70;70.20;;;;;;5116662;28;20027;-69
2022/05/18 06:05:34;;;;;;;11.88;7.28;;;19.90;70.30;;;;;;5116494;28;20028;-69
2022/05/18 06:08:00;;;;;;;9.88;7.13;;;20.00;69.90;;;;;;5115462;28;20025;-69
2022/05/18 06:10:25;;;;;;;10.98;6.82;;;20.10;69.70;;;;;;5116409;28;20087;-69
2022/05/18 06:12:51;;;;;;;8.75;6.55;;;20.20;69.70;;;;;;5115349;28;20038;-69
2022/05/18 06:15:17;;;;;;;11.50;6.55;;;20.30;69.30;;;;;;5116340;28;20058;-69
2022/05/18 06:17:42;;;;;;;12.02;7.13;;;20.40;69.60;;;;;;5116321;28;20032;-69
2022/05/18 06:20:09;;;;;;;9.52;6.70;;;20.50;68.50;;;;;;5116173;28;20024;-69
2022/05/18 06:22:34;;;;;;;9.15;6.72;;;20.50;67.90;;;;;;5115120;28;20040;-69
2022/05/18 06:25:00;;;;;;;10.45;7.13;;;20.50;67.30;;;;;;5116200;28;20110;-69
2022/05/18 06:27:26;;;;;;;11.70;7.40;;;20.60;67.90;;;;;;5115890;28;20020;-69
2022/05/18 06:29:51;;;;;;;12.32;7.43;;;20.60;67.20;;;;;;5115989;28;20039;-69
2022/05/18 06:32:18;;;;;;;11.52;7.45;;;20.70;66.90;;;;;;5115994;28;20054;-70
2022/05/18 06:34:48;;;;;;;10.73;7.75;;;20.70;66.90;;;;;;5115873;28;20495;-69
2022/05/18 06:37:14;;;;;;;11.55;7.47;;;20.70;67.70;;;;;;5116129;28;20024;-68
2022/05/18 06:39:40;;;;;;;12.68;8.27;;;20.70;67.90;;;;;;5115841;28;20024;-68
2022/05/18 06:42:06;;;;;;;14.43;8.27;;;20.70;68.00;;;;;;5115862;28;20024;-68
2022/05/18 06:44:31;;;;;;;12.32;8.43;;;20.80;67.20;;;;;;5115806;28;20084;-69
2022/05/18 06:47:00;;;;;;;12.52;8.60;;;20.80;67.60;;;;;;5115870;28;20024;-69
2022/05/18 06:49:27;;;;;;;12.57;8.18;;;20.90;67.70;;;;;;5115709;28;20081;-69
2022/05/18 06:51:55;;;;;;;12.82;9.57;;;20.90;68.10;;;;;;5115703;28;20020;-69
2022/05/18 06:54:21;;;;;;;16.00;9.20;;;21.00;67.90;;;;;;5115629;28;20030;-68
2022/05/18 06:56:47;;;;;;;11.60;9.55;;;21.10;67.40;;;;;;5115546;28;20474;-67
2022/05/18 06:59:13;;;;;;;11.77;8.95;;;21.20;67.60;;;;;;5114697;28;20480;-68
2022/05/18 07:01:40;;;;;;;12.60;8.80;;;21.40;68.30;;;;;;5115426;28;20024;-68
2022/05/18 07:04:07;;;;;;;10.38;8.40;;;21.40;68.30;;;;;;5115469;28;20016;-68
2022/05/18 07:06:35;;;;;;;13.23;9.02;;;21.50;67.90;;;;;;5115429;28;20020;-68
2022/05/18 07:09:03;;;;;;;11.27;8.68;;;21.50;67.40;;;;;;5115351;28;20020;-69
2022/05/18 07:11:28;;;;;;;14.57;9.13;;;21.50;66.50;;;;;;5115284;28;20030;-68
2022/05/18 07:13:55;;;;;;;14.60;9.80;;;21.50;66.70;;;;;;5115241;28;20051;-69
2022/05/18 07:16:23;;;;;;;15.20;9.88;;;21.50;67.60;;;;;;5115216;28;20028;-69
2022/05/18 07:18:49;;;;;;;14.23;9.30;;;21.50;67.90;;;;;;5115252;28;20020;-69
2022/05/18 07:21:15;;;;;;;16.13;10.68;;;21.50;67.10;;;;;;5115007;28;20051;-69
2022/05/18 07:23:41;;;;;;;16.98;10.52;;;21.60;66.70;;;;;;5114860;28;20371;-69
2022/05/18 07:26:07;;;;;;;15.23;10.60;;;21.60;67.10;;;;;;5115115;28;20033;-69
2022/05/18 07:28:33;;;;;;;14.38;10.30;;;21.70;67.30;;;;;;5114891;28;20058;-69
2022/05/18 07:30:59;;;;;;;13.70;8.80;;;21.80;67.40;;;;;;5114970;28;20024;-69
2022/05/18 07:33:26;;;;;;;10.93;6.70;;;21.80;67.00;;;;;;5114866;28;20112;-69
2022/05/18 07:36:17;;;;;;;9.80;6.10;;;21.90;65.60;;;;;;5114854;28;20028;-69
2022/05/18 07:38:43;;;;;;;10.10;6.50;;;21.90;66.30;;;;;;5114896;28;20087;-70
2022/05/18 07:41:11;;;;;;;11.60;6.15;;;21.90;66.00;;;;;;5114015;28;20032;-69
2022/05/18 07:43:37;;;;;;;10.38;5.85;;;21.90;63.80;;;;;;5114671;28;20021;-68
2022/05/18 07:46:04;;;;;;;9.70;6.05;;;22.00;63.20;;;;;;5114633;28;20042;-69
2022/05/18 07:48:30;;;;;;;9.80;6.93;;;22.00;63.40;;;;;;5114590;28;20024;-69
2022/05/18 07:50:57;;;;;;;10.02;6.82;;;22.00;61.90;;;;;;5114554;28;20032;-69
2022/05/18 07:53:23;;;;;;;10.18;6.18;;;22.00;61.20;;;;;;5114488;28;20020;-68
2022/05/18 07:55:49;;;;;;;12.40;6.90;;;22.00;61.80;;;;;;5114430;28;20058;-69
2022/05/18 07:58:17;;;;;;;10.82;7.50;;;22.00;62.30;;;;;;5113348;28;20024;-68
2022/05/18 08:00:43;;;;;;;12.27;8.40;;;22.10;61.20;;;;;;5113510;28;20051;-68
2022/05/18 08:03:09;;;;;;;31.95;28.13;;;22.20;61.70;;;;;;5114372;28;20076;-68
2022/05/18 08:05:36;;;;;;;10.50;8.52;;;22.30;61.00;;;;;;5114334;28;20032;-68
2022/05/18 08:08:07;;;;;;;14.70;9.02;;;22.40;60.90;;;;;;5114298;28;20024;-67
2022/05/18 08:16:02;;;;;;;15.25;9.48;;;22.70;60.30;;;;;;5114215;28;20047;-68
2022/05/18 08:18:28;;;;;;;16.65;10.00;;;22.70;60.50;;;;;;5114048;28;20035;-68
2022/05/18 08:20:53;;;;;;;17.33;10.00;;;22.80;60.10;;;;;;5113989;28;20044;-68
2022/05/18 08:23:20;;;;;;;16.15;10.35;;;22.80;59.70;;;;;;5113795;28;20040;-67
2022/05/18 08:25:49;;;;;;;16.05;10.73;;;22.90;59.80;;;;;;5113842;28;20017;-65
2022/05/18 08:28:15;;;;;;;20.63;10.85;;;23.00;59.80;;;;;;5113809;28;20028;-65
2022/05/18 08:30:42;;;;;;;15.00;10.65;;;23.00;59.30;;;;;;5113848;28;20028;-66
2022/05/18 08:33:09;;;;;;;20.10;10.73;;;23.10;60.00;;;;;;5113845;28;20072;-66
2022/05/18 08:35:34;;;;;;;15.82;10.45;;;23.10;59.90;;;;;;5113902;28;20028;-65
2022/05/18 08:38:00;;;;;;;16.92;10.80;;;23.00;60.00;;;;;;5113770;28;20042;-64
2022/05/18 08:40:29;;;;;;;16.90;10.48;;;23.10;59.30;;;;;;5113667;28;20039;-65
2022/05/18 08:43:07;;;;;;;16.88;10.88;;;23.00;58.60;;;;;;5113668;28;20028;-64
2022/05/18 08:45:43;;;;;;;16.08;10.35;;;23.00;60.10;;;;;;5113734;28;20528;-65
2022/05/18 08:48:34;;;;;;;17.13;10.55;;;23.00;58.90;;;;;;5113619;28;20031;-64
2022/05/18 08:51:12;;;;;;;17.10;10.07;;;23.10;57.80;;;;;;5112999;28;20047;-64
2022/05/18 08:54:04;;;;;;;16.50;10.75;;;23.20;60.30;;;;;;5113498;28;20024;-64
2022/05/18 08:56:33;;;;;;;16.73;10.20;;;23.20;59.70;;;;;;5113580;28;20032;-65
2022/05/18 08:59:02;;;;;;;14.90;9.30;;;23.30;59.40;;;;;;5112466;28;20020;-64
2022/05/18 09:01:46;;;;;;;13.60;8.70;;;23.40;60.10;;;;;;5113410;28;20036;-65
2022/05/18 09:04:25;;;;;;;16.20;10.10;;;23.50;59.10;;;;;;5113528;28;20049;-65
2022/05/18 09:07:19;;;;;;;15.70;9.38;;;23.50;58.90;;;;;;5112695;28;20078;-65
2022/05/18 09:10:16;;;;;;;12.35;8.95;;;23.60;56.90;;;;;;5113514;28;20024;-66
2022/05/18 09:12:55;;;;;;;14.52;9.05;;;23.70;58.40;;;;;;5112398;28;20025;-66
2022/05/18 09:15:34;;;;;;;14.25;8.70;;;23.80;57.20;;;;;;5113306;28;20028;-67
2022/05/18 09:18:12;;;;;;;14.70;8.95;;;23.90;58.10;;;;;;5113332;28;20031;-66
2022/05/18 09:21:09;;;;;;;16.73;9.63;;;24.00;57.90;;;;;;5113391;28;20028;-66
2022/05/18 09:23:54;;;;;;;14.27;9.82;;;24.10;57.80;;;;;;5071475;28;20075;-66
2022/05/18 09:26:49;;;;;;;18.98;10.35;;;24.20;57.90;;;;;;5113271;28;20544;-66
2022/05/18 09:29:45;;;;;;;13.32;8.82;;;24.20;57.00;;;;;;5113252;28;20020;-67
2022/05/18 09:32:34;;;;;;;13.80;8.98;;;24.40;59.40;;;;;;5113092;28;20024;-72
2022/05/18 09:35:27;;;;;;;13.23;8.30;;;24.50;57.70;;;;;;5112128;28;20026;-73
2022/05/18 09:38:02;;;;;;;13.68;9.02;;;24.50;58.70;;;;;;5113119;28;20020;-71
2022/05/18 09:40:35;;;;;;;13.93;9.32;;;24.50;56.70;;;;;;5113142;28;20056;-70
2022/05/18 09:43:11;;;;;;;10.32;8.25;;;24.50;56.90;;;;;;5113178;28;20017;-70
2022/05/18 09:45:42;;;;;;;13.90;7.88;;;24.70;58.10;;;;;;5113063;28;20025;-72
2022/05/18 09:48:15;;;;;;;12.07;7.55;;;24.70;56.80;;;;;;5113068;28;20016;-72
2022/05/18 09:50:44;;;;;;;10.43;7.70;;;24.90;57.50;;;;;;5113107;28;20024;-67
2022/05/18 09:53:11;;;;;;;12.73;8.35;;;24.90;57.50;;;;;;5112972;28;20076;-68
2022/05/18 09:55:37;;;;;;;10.27;7.40;;;24.90;55.60;;;;;;5112923;28;20052;-67
2022/05/18 09:58:09;;;;;;;11.60;7.90;;;25.00;56.80;;;;;;5111858;28;20050;-66
2022/05/18 10:00:40;;;;;;;8.45;6.35;;;25.10;56.50;;;;;;5113064;28;20046;-67
2022/05/18 10:08:58;;;;;;;9.18;5.88;;;25.30;56.10;;;;;;5116656;28;20039;-69
2022/05/18 10:11:31;;;;;;;9.65;5.28;;;25.40;56.40;;;;;;5116455;28;20028;-67
2022/05/18 10:14:15;;;;;;;7.65;5.95;;;25.60;54.10;;;;;;5116409;28;20487;-67
2022/05/18 10:17:05;;;;;;;10.93;6.18;;;25.60;55.00;;;;;;5116458;28;20463;-67
2022/05/18 10:19:44;;;;;;;10.82;6.07;;;25.60;53.80;;;;;;5116424;28;20028;-67
2022/05/18 10:22:13;;;;;;;9.63;5.22;;;25.50;54.40;;;;;;5116177;28;20027;-67
2022/05/18 10:24:52;;;;;;;8.73;4.95;;;25.50;55.40;;;;;;5116399;28;20054;-67
2022/05/18 10:27:23;;;;;;;10.23;5.90;;;25.60;55.80;;;;;;5116168;28;20020;-67
2022/05/18 10:30:01;;;;;;;10.15;5.25;;;25.70;55.60;;;;;;5116077;28;20025;-68
2022/05/18 10:32:29;;;;;;;8.52;5.07;;;25.80;55.70;;;;;;5116047;28;20027;-68
2022/05/18 10:34:56;;;;;;;10.32;6.18;;;25.90;55.90;;;;;;5116051;28;20084;-67
2022/05/18 10:37:27;;;;;;;10.32;6.25;;;25.90;54.90;;;;;;5116115;28;20046;-69
2022/05/18 10:39:58;;;;;;;10.93;6.13;;;25.90;53.20;;;;;;5115873;28;20024;-67
2022/05/18 10:42:46;;;;;;;9.93;6.18;;;26.00;54.30;;;;;;5116127;28;20080;-67
2022/05/18 10:45:25;;;;;;;9.95;6.10;;;26.00;54.40;;;;;;5115856;28;20016;-67
2022/05/18 10:47:53;;;;;;;7.82;6.32;;;26.20;54.40;;;;;;5115958;28;20020;-68
2022/05/18 10:50:23;;;;;;;8.60;5.90;;;26.20;54.60;;;;;;5114365;28;20067;-67
2022/05/18 10:52:50;;;;;;;8.88;6.10;;;26.20;52.60;;;;;;5115659;28;20091;-68
2022/05/18 10:55:19;;;;;;;8.18;5.75;;;26.30;51.90;;;;;;5115670;28;20032;-69
2022/05/18 10:58:01;;;;;;;8.13;5.97;;;26.50;53.00;;;;;;5115669;28;20039;-69
2022/05/18 11:00:50;;;;;;;11.63;6.57;;;26.40;52.10;;;;;;5115440;28;20028;-67
2022/05/18 11:03:46;;;;;;;8.43;7.00;;;26.40;54.00;;;;;;5115679;28;20021;-69
2022/05/18 11:06:16;;;;;;;13.10;7.50;;;26.50;51.60;;;;;;5115501;28;20028;-69
2022/05/18 11:08:42;;;;;;;9.73;7.57;;;26.60;51.90;;;;;;5115446;28;20027;-69
2022/05/18 11:11:17;;;;;;;9.77;6.82;;;26.80;51.40;;;;;;5115409;28;20032;-68
2022/05/18 11:13:55;;;;;;;9.13;7.53;;;26.90;51.40;;;;;;5114957;28;20020;-69
2022/05/18 11:16:31;;;;;;;11.52;7.10;;;26.90;50.10;;;;;;5114826;28;20028;-68
2022/05/18 11:19:05;;;;;;;12.60;6.00;;;27.00;50.70;;;;;;5115193;28;20079;-69
2022/05/18 11:21:43;;;;;;;11.35;6.70;;;26.90;49.90;;;;;;5115186;28;20028;-69
2022/05/18 11:24:20;;;;;;;12.10;8.60;;;26.80;52.60;;;;;;5114978;28;20048;-70
2022/05/18 11:27:04;;;;;;;11.43;7.63;;;26.80;51.40;;;;;;5115037;28;20422;-67
2022/05/18 11:29:45;;;;;;;10.68;7.93;;;26.90;51.40;;;;;;5114944;28;20016;-67
2022/05/18 11:32:32;;;;;;;9.82;7.53;;;27.00;50.80;;;;;;5113977;28;20032;-69
2022/05/18 11:35:01;;;;;;;13.23;7.90;;;27.00;51.70;;;;;;5114901;28;20088;-68
2022/05/18 11:37:58;;;;;;;10.63;7.72;;;27.10;50.70;;;;;;5113779;28;20017;-67
2022/05/18 11:40:42;;;;;;;9.05;6.78;;;27.00;49.60;;;;;;5114758;28;20030;-68
2022/05/18 11:43:30;;;;;;;12.80;7.03;;;27.00;50.80;;;;;;5114835;28;20024;-68
2022/05/18 11:46:25;;;;;;;10.88;6.53;;;27.00;51.10;;;;;;5114838;28;20031;-68
2022/05/18 11:48:54;;;;;;;10.98;7.07;;;27.20;50.80;;;;;;5042768;28;20122;-68
2022/05/18 11:51:45;;;;;;;12.75;7.75;;;27.20;50.70;;;;;;5114799;28;20026;-68
2022/05/18 11:54:11;;;;;;;13.13;8.30;;;27.20;49.80;;;;;;5114547;28;20020;-68
2022/05/18 11:57:02;;;;;;;10.32;7.65;;;27.20;49.50;;;;;;5114465;28;20456;-67
2022/05/18 11:59:58;;;;;;;8.80;7.13;;;27.10;50.90;;;;;;5114476;28;20012;-69
2022/05/18 12:02:42;;;;;;;13.27;7.13;;;26.90;49.50;;;;;;5114404;28;20020;-69
2022/05/18 12:05:42;;;;;;;11.00;7.22;;;26.90;49.30;;;;;;5114301;28;20040;-68
2022/05/18 12:08:26;;;;;;;13.68;7.72;;;26.70;48.80;;;;;;5114363;28;20024;-67
2022/05/18 12:11:14;;;;;;;11.88;7.32;;;26.70;50.90;;;;;;5114380;28;20024;-68
2022/05/18 12:13:43;;;;;;;9.88;6.63;;;26.80;50.60;;;;;;5114356;28;20075;-67
2022/05/18 12:16:35;;;;;;;9.13;6.47;;;26.90;51.70;;;;;;5114041;28;20028;-68
2022/05/18 12:19:37;;;;;;;12.80;6.18;;;26.90;49.90;;;;;;5114050;28;20028;-68
2022/05/18 12:22:07;;;;;;;9.33;5.53;;;27.10;50.10;;;;;;5114052;28;20039;-68
2022/05/18 12:24:34;;;;;;;11.32;6.93;;;27.20;50.20;;;;;;5113061;28;20099;-67
2022/05/18 12:27:01;;;;;;;9.35;5.93;;;27.30;49.10;;;;;;5112745;28;20035;-68
2022/05/18 12:29:28;;;;;;;9.63;5.63;;;27.40;48.80;;;;;;5113817;28;20020;-68
2022/05/18 12:31:56;;;;;;;9.65;5.53;;;27.40;48.70;;;;;;5113886;28;20040;-67
2022/05/18 12:34:38;;;;;;;9.77;5.78;;;27.50;48.20;;;;;;5113793;28;20023;-67
2022/05/18 12:37:13;;;;;;;12.80;5.20;;;27.30;48.80;;;;;;5113945;28;20043;-67
2022/05/18 12:39:42;;;;;;;8.32;4.85;;;27.20;48.50;;;;;;5113724;28;20057;-68
2022/05/18 12:42:13;;;;;;;10.65;5.65;;;27.20;48.30;;;;;;5112579;28;20034;-67
2022/05/18 12:44:50;;;;;;;7.70;5.80;;;27.10;48.50;;;;;;5113690;28;20050;-67
2022/05/18 12:47:28;;;;;;;6.93;4.10;;;27.00;49.00;;;;;;5113710;28;20044;-67
2022/05/18 12:50:13;;;;;;;8.05;4.03;;;27.10;49.70;;;;;;5113610;28;20012;-67
2022/05/18 12:52:59;;;;;;;6.82;3.88;;;27.10;49.40;;;;;;5113712;28;20020;-67
2022/05/18 12:55:30;;;;;;;8.85;4.72;;;27.30;49.50;;;;;;5113541;28;20533;-68
2022/05/18 12:58:26;;;;;;;5.95;4.00;;;27.40;49.50;;;;;;5113694;28;20024;-68
2022/05/18 13:01:20;;;;;;;8.90;3.97;;;27.50;48.60;;;;;;5113446;28;20020;-68
2022/05/18 13:03:59;;;;;;;7.25;4.03;;;27.60;47.90;;;;;;5113459;28;20024;-68
2022/05/18 13:06:39;;;;;;;8.98;3.70;;;27.60;47.70;;;;;;5113466;28;20016;-68
2022/05/18 13:09:26;;;;;;;5.75;3.80;;;27.60;47.70;;;;;;5113370;28;20024;-68
2022/05/18 13:12:18;;;;;;;6.88;4.30;;;27.80;50.10;;;;;;5113459;28;20032;-68
2022/05/18 13:14:55;;;;;;;5.30;3.80;;;27.70;48.30;;;;;;5113483;28;20115;-67